createdAt,value
2019-02-04T00:01:39.111Z,12.47
2019-02-04T00:04:08.005Z,13.05
2019-02-04T00:06:36.955Z,12.65
2019-02-04T00:09:08.760Z,12.18
2019-02-04T00:11:37.812Z,12.77
2019-02-04T00:14:07.534Z,12.53
2019-02-04T00:16:40.922Z,13.15
2019-02-04T00:19:07.270Z,13.32
2019-02-04T00:21:36.255Z,11.97
2019-02-04T00:24:05.258Z,13.53
2019-02-04T00:26:34.149Z,12.37
2019-02-04T00:29:03.896Z,11.88
2019-02-04T00:31:32.783Z,12.75
2019-02-04T00:34:01.637Z,13.85
2019-02-04T00:36:30.650Z,14.15
2019-02-04T00:39:02.406Z,11.70
2019-02-04T00:41:30.733Z,13.43
2019-02-04T00:43:59.792Z,12.25
2019-02-04T00:46:28.756Z,12.90
2019-02-04T00:48:58.092Z,13.58
2019-02-04T00:51:26.960Z,13.37
2019-02-04T00:53:55.972Z,13.53
2019-02-04T00:56:24.828Z,14.13
2019-02-04T00:58:54.165Z,13.40
2019-02-04T01:01:23.568Z,13.80
2019-02-04T01:03:52.606Z,13.00
2019-02-04T01:06:21.664Z,12.77
2019-02-04T01:08:52.955Z,12.43
2019-02-04T01:11:21.989Z,13.60
2019-02-04T01:13:50.924Z,13.03
2019-02-04T01:16:19.902Z,13.30
2019-02-04T01:18:48.779Z,12.73
2019-02-04T01:21:17.707Z,13.48
2019-02-04T01:23:46.561Z,13.83
2019-02-04T01:26:15.510Z,12.55
2019-02-04T01:28:44.458Z,12.23
2019-02-04T04:35:24.091Z,12.27
2019-02-04T04:37:53.108Z,12.60
2019-02-04T04:40:22.216Z,12.15
2019-02-04T04:42:51.311Z,12.53
2019-02-04T04:45:21.989Z,12.43
2019-02-04T04:47:51.381Z,11.00
2019-02-04T04:50:20.397Z,11.25
2019-02-04T04:52:49.487Z,11.22
2019-02-04T04:55:20.736Z,11.50
2019-02-04T04:57:49.696Z,13.35
2019-02-04T05:00:21.138Z,11.90
2019-02-04T05:02:50.158Z,11.83
2019-02-04T05:05:19.007Z,11.50
2019-02-04T05:07:47.941Z,11.30
2019-02-04T05:10:17.741Z,11.08
2019-02-04T05:12:46.762Z,11.60
2019-02-04T05:15:20.769Z,11.07
2019-02-04T05:17:52.429Z,12.60
2019-02-04T05:20:20.443Z,11.33
2019-02-04T05:22:49.361Z,11.13
2019-02-04T05:25:18.691Z,11.48
2019-02-04T05:27:47.680Z,12.15
2019-02-04T05:30:18.547Z,11.83
2019-02-04T05:32:47.624Z,12.10
2019-02-04T05:35:16.633Z,11.53
2019-02-04T05:37:45.641Z,11.50
2019-02-04T05:40:15.499Z,11.50
2019-02-04T05:42:45.012Z,11.10
2019-02-04T05:45:16.265Z,12.33
2019-02-04T05:47:45.538Z,11.57
2019-02-04T05:50:17.569Z,11.57
2019-02-04T05:52:46.784Z,12.07
2019-02-04T05:55:17.357Z,12.03
2019-02-04T05:57:47.785Z,11.07
2019-02-04T06:00:22.439Z,12.50
2019-02-04T06:02:51.376Z,11.53
2019-02-04T06:05:20.442Z,12.85
2019-02-04T06:07:49.840Z,11.57
2019-02-04T06:10:19.371Z,12.40
2019-02-04T06:12:48.462Z,12.20
2019-02-04T06:15:17.497Z,12.57
2019-02-04T06:17:46.590Z,11.12
2019-02-04T06:20:17.328Z,11.68
2019-02-04T06:22:46.264Z,12.27
2019-02-04T06:25:15.227Z,12.05
2019-02-04T06:27:44.272Z,12.50
2019-02-04T06:30:13.812Z,11.88
2019-02-04T06:32:42.999Z,12.27
2019-02-04T06:35:12.133Z,12.40
2019-02-04T06:37:41.064Z,13.80
2019-02-04T06:40:11.549Z,14.50
2019-02-04T06:42:40.712Z,13.13
2019-02-04T06:45:11.877Z,12.13
2019-02-04T06:47:40.810Z,12.70
2019-02-04T06:50:12.050Z,11.57
2019-02-04T06:52:41.361Z,11.53
2019-02-04T06:55:13.231Z,11.08
2019-02-04T06:57:42.148Z,12.13
2019-02-04T07:00:12.602Z,12.18
2019-02-04T07:02:43.925Z,10.50
2019-02-04T07:05:12.924Z,11.20
2019-02-04T07:07:41.979Z,12.07
2019-02-04T07:10:13.801Z,12.40
2019-02-04T07:12:42.693Z,11.57
2019-02-04T07:15:11.933Z,12.93
2019-02-04T07:17:40.887Z,12.33
2019-02-04T07:20:18.824Z,13.03
2019-02-04T07:22:47.850Z,12.40
2019-02-04T07:25:17.694Z,13.00
2019-02-04T07:27:48.781Z,12.17
2019-02-04T07:30:19.790Z,11.67
2019-02-04T07:32:49.350Z,11.63
2019-02-04T07:35:18.722Z,11.90
2019-02-04T07:37:47.917Z,11.80
2019-02-04T07:40:19.356Z,13.33
2019-02-04T07:42:49.000Z,13.23
2019-02-04T07:45:18.217Z,12.80
2019-02-04T07:47:47.624Z,12.67
2019-02-04T07:50:16.709Z,13.47
2019-02-04T07:52:46.104Z,13.33
2019-02-04T07:55:15.136Z,13.90
2019-02-04T07:57:44.184Z,14.03
2019-02-04T08:00:19.401Z,13.63
2019-02-04T08:02:48.730Z,12.87
2019-02-04T08:05:17.765Z,14.70
2019-02-04T08:07:46.766Z,13.70
2019-02-04T08:10:15.806Z,14.47
2019-02-04T08:12:44.814Z,13.30
2019-02-04T08:15:16.917Z,13.50
2019-02-04T08:17:45.871Z,13.20
2019-02-04T08:20:14.882Z,13.77
2019-02-04T08:22:43.890Z,14.63
2019-02-04T08:25:13.417Z,14.47
2019-02-04T08:27:42.424Z,12.80
2019-02-04T08:30:21.494Z,12.90
2019-02-04T08:32:50.416Z,13.00
2019-02-04T08:35:19.418Z,13.57
2019-02-04T08:37:48.484Z,12.60
2019-02-04T08:40:17.511Z,12.73
2019-02-04T08:42:46.689Z,13.43
2019-02-04T08:45:16.289Z,17.97
2019-02-04T08:47:45.356Z,19.17
2019-02-04T08:50:16.386Z,25.17
2019-02-04T08:52:45.438Z,13.63
2019-02-04T08:55:14.456Z,13.83
2019-02-04T08:57:43.498Z,13.43
2019-02-04T09:00:15.621Z,12.80
2019-02-04T09:02:45.988Z,14.03
2019-02-04T09:05:16.941Z,12.23
2019-02-04T09:07:45.932Z,13.30
2019-02-04T09:10:21.953Z,12.50
2019-02-04T09:12:52.977Z,13.50
2019-02-04T09:15:21.987Z,12.97
2019-02-04T09:17:51.069Z,12.67
2019-02-04T09:20:20.389Z,11.70
2019-02-04T09:22:50.018Z,11.03
2019-02-04T09:25:19.197Z,10.87
2019-02-04T09:27:48.721Z,11.27
2019-02-04T09:30:19.710Z,10.63
2019-02-04T09:32:48.805Z,11.77
2019-02-04T09:35:18.838Z,9.40
2019-02-04T09:37:48.027Z,8.63
2019-02-04T09:40:35.466Z,8.47
2019-02-04T09:43:04.679Z,8.90
2019-02-04T09:45:33.754Z,8.63
2019-02-04T09:48:02.879Z,7.93
2019-02-04T09:50:33.070Z,8.90
2019-02-04T09:53:02.077Z,8.23
2019-02-04T09:55:33.416Z,7.73
2019-02-04T09:58:02.499Z,7.73
2019-02-04T10:00:33.338Z,8.63
2019-02-04T10:03:02.318Z,7.83
2019-02-04T10:05:31.233Z,8.27
2019-02-04T10:08:00.318Z,7.47
2019-02-04T10:10:29.319Z,6.97
2019-02-04T10:12:58.626Z,7.63
2019-02-04T10:15:30.292Z,7.53
2019-02-04T10:17:59.223Z,7.07
2019-02-04T10:20:34.159Z,8.47
2019-02-04T10:22:59.143Z,7.50
2019-02-04T10:25:30.245Z,7.83
2019-02-04T10:27:59.273Z,8.37
2019-02-04T10:30:28.447Z,8.70
2019-02-04T10:32:57.350Z,9.47
2019-02-04T10:35:26.361Z,8.03
2019-02-04T10:37:55.520Z,8.77
2019-02-04T10:40:25.772Z,8.27
2019-02-04T10:42:55.331Z,9.17
2019-02-04T10:45:24.539Z,10.47
2019-02-04T10:47:55.750Z,8.90
2019-02-04T10:50:30.078Z,9.63
2019-02-04T10:52:59.321Z,9.90
2019-02-04T10:55:28.444Z,9.97
2019-02-04T10:57:57.554Z,9.33
2019-02-04T11:00:30.207Z,8.83
2019-02-04T11:03:04.138Z,7.80
2019-02-04T11:05:37.053Z,8.97
2019-02-04T11:08:07.369Z,8.38
2019-02-04T11:10:37.397Z,7.83
2019-02-04T11:13:21.251Z,8.20
2019-02-04T11:15:50.889Z,8.27
2019-02-04T11:18:22.122Z,9.20
2019-02-04T11:20:58.064Z,8.33
2019-02-04T11:23:22.035Z,8.73
2019-02-04T11:25:51.199Z,8.50
2019-02-04T11:28:22.675Z,7.80
2019-02-04T11:31:03.590Z,6.80
2019-02-04T11:33:33.605Z,8.60
2019-02-04T11:36:02.691Z,7.83
2019-02-04T11:38:33.381Z,7.30
2019-02-04T11:41:05.570Z,7.53
2019-02-04T11:43:36.732Z,7.47
2019-02-04T11:46:05.997Z,7.47
2019-02-04T11:48:35.818Z,8.53
2019-02-04T11:51:09.649Z,7.87
2019-02-04T11:53:37.069Z,7.50
2019-02-04T11:56:14.321Z,8.33
2019-02-04T11:58:44.911Z,7.80
2019-02-04T12:01:18.326Z,7.93
2019-02-04T12:03:48.091Z,7.70
2019-02-04T12:06:17.670Z,9.10
2019-02-04T12:08:49.518Z,7.80
2019-02-04T12:11:20.589Z,8.77
2019-02-04T12:13:53.446Z,8.67
2019-02-04T12:16:22.421Z,7.43
2019-02-04T12:18:51.381Z,9.63
2019-02-04T12:21:21.991Z,8.37
2019-02-04T12:23:56.481Z,9.23
2019-02-04T12:26:25.992Z,9.10
2019-02-04T12:28:58.210Z,8.23
2019-02-04T12:31:27.741Z,8.87
2019-02-04T12:33:59.162Z,8.47
2019-02-04T12:36:28.194Z,7.60
2019-02-04T12:38:57.657Z,8.80
2019-02-04T12:41:27.996Z,7.20
2019-02-04T12:43:57.385Z,7.73
2019-02-04T12:46:26.810Z,7.60
2019-02-04T12:48:56.492Z,7.53
2019-02-04T12:51:33.313Z,8.23
2019-02-04T12:53:56.982Z,7.87
2019-02-04T12:56:26.270Z,7.77
2019-02-04T12:58:58.132Z,7.60
2019-02-04T13:01:27.420Z,7.07
2019-02-04T13:03:56.376Z,7.67
2019-02-04T13:06:26.570Z,7.77
2019-02-04T13:08:55.518Z,8.73
2019-02-04T13:11:26.356Z,8.73
2019-02-04T13:13:57.045Z,8.30
2019-02-04T13:16:26.069Z,9.53
2019-02-04T13:18:55.114Z,9.23
2019-02-04T13:21:24.787Z,8.73
2019-02-04T13:23:56.837Z,7.73
2019-02-04T13:26:27.168Z,9.27
2019-02-04T13:28:56.168Z,8.43
2019-02-04T13:31:25.209Z,8.17
2019-02-04T13:33:54.264Z,8.20
2019-02-04T13:36:25.067Z,9.33
2019-02-04T13:38:54.245Z,9.03
2019-02-04T13:41:23.754Z,8.97
2019-02-04T13:43:52.804Z,8.30
2019-02-04T13:46:22.074Z,8.77
2019-02-04T13:48:51.443Z,8.87
2019-02-04T13:51:20.405Z,9.43
2019-02-04T13:53:49.424Z,9.20
2019-02-04T13:56:18.740Z,10.30
2019-02-04T13:58:47.761Z,10.33
2019-02-04T14:01:16.751Z,10.10
2019-02-04T14:03:48.369Z,11.00
2019-02-04T14:06:18.535Z,11.17
2019-02-04T14:08:47.941Z,12.13
2019-02-04T14:11:16.784Z,9.87
2019-02-04T14:13:45.812Z,9.83
2019-02-04T14:16:18.013Z,10.10
2019-02-04T14:18:46.966Z,11.20
2019-02-04T14:21:16.007Z,11.70
2019-02-04T14:23:45.045Z,11.38
2019-02-04T14:26:14.109Z,13.00
2019-02-04T14:28:43.161Z,11.27
2019-02-04T14:31:16.028Z,10.38
2019-02-04T14:33:45.082Z,11.70
2019-02-04T14:36:14.987Z,12.40
2019-02-04T14:38:44.196Z,11.27
2019-02-04T14:41:13.710Z,10.78
2019-02-04T14:43:52.531Z,12.10
2019-02-04T14:46:50.611Z,11.75
2019-02-04T14:50:00.863Z,11.63
2019-02-04T14:53:03.675Z,11.93
2019-02-04T14:56:08.582Z,11.83
2019-02-04T15:11:56.604Z,10.67
2019-02-04T15:15:16.657Z,10.20
2019-02-04T15:18:12.982Z,10.70
2019-02-04T15:21:18.745Z,10.00
2019-02-04T15:24:22.023Z,10.23
2019-02-04T15:27:21.095Z,10.20
2019-02-04T15:30:23.645Z,10.27
2019-02-04T15:33:22.305Z,10.60
2019-02-04T15:36:28.157Z,9.97
2019-02-04T15:39:47.871Z,10.80
2019-02-04T15:43:08.830Z,11.30
2019-02-04T15:46:18.967Z,10.38
2019-02-04T15:49:50.374Z,11.70
2019-02-04T15:52:14.148Z,11.57
2019-02-04T15:54:44.037Z,10.90
2019-02-04T15:57:14.541Z,11.78
2019-02-04T15:59:43.434Z,10.90
2019-02-04T16:02:12.472Z,11.90
2019-02-04T16:04:41.437Z,12.35
2019-02-04T16:07:14.018Z,11.65
2019-02-04T16:09:48.083Z,11.95
2019-02-04T16:12:19.686Z,11.95
2019-02-04T16:14:48.812Z,13.68
2019-02-04T16:17:19.291Z,12.55
2019-02-04T16:19:48.454Z,13.28
2019-02-04T16:22:17.678Z,12.73
2019-02-04T16:27:35.831Z,12.95
